Time;durP1;ratioP1;P1;durP2;ratioP2;P2;SDS_P1;SDS_P2;PMS_P1;PMS_P2;Temp;Humidity;BMP_temperature;BMP_pressure;BME280_temperature;BME280_humidity;BME280_pressure;Samples;Min_cycle;Max_cycle;Signal;HPM_P1;HPM_P2
2023/03/30 00:00:42;;;;;;;8.40;2.00;;;;;;;;;;5114781;28;20194;-77
2023/03/30 00:03:11;;;;;;;6.80;2.00;;;;;;;;;;5114949;28;20235;-76
2023/03/30 00:05:38;;;;;;;7.73;2.27;;;;;;;;;;5114488;28;20795;-76
2023/03/30 00:08:06;;;;;;;7.00;2.30;;;;;;;;;;5114815;28;20208;-76
2023/03/30 00:10:33;;;;;;;6.10;2.10;;;;;;;;;;5114099;28;20620;-76
2023/03/30 00:13:00;;;;;;;9.07;2.13;;;;;;;;;;5114587;28;20293;-76
2023/03/30 00:15:28;;;;;;;8.60;1.93;;;;;;;;;;5114375;28;20204;-75
2023/03/30 00:17:55;;;;;;;7.50;1.90;;;;;;;;;;5106003;28;20738;-76
2023/03/30 00:20:23;;;;;;;8.43;2.17;;;;;;;;;;5094939;28;20218;-74
2023/03/30 00:22:51;;;;;;;7.10;1.80;;;;;;;;;;5093810;28;20293;-75
2023/03/30 00:25:18;;;;;;;9.07;1.80;;;;;;;;;;5093782;28;20195;-75
2023/03/30 00:27:46;;;;;;;10.00;2.20;;;;;;;;;;5102219;28;20233;-76
2023/03/30 00:30:14;;;;;;;8.27;1.80;;;;;;;;;;5114718;28;20193;-76
2023/03/30 00:32:41;;;;;;;10.30;2.50;;;;;;;;;;5113927;28;20194;-75
2023/03/30 00:35:09;;;;;;;11.43;2.37;;;;;;;;;;5114174;28;20198;-76
2023/03/30 00:37:38;;;;;;;6.30;1.97;;;;;;;;;;5114654;28;20198;-75
2023/03/30 00:40:08;;;;;;;8.97;2.00;;;;;;;;;;5113675;28;20689;-76
2023/03/30 00:42:35;;;;;;;10.33;2.03;;;;;;;;;;5114172;28;20221;-75
2023/03/30 00:45:07;;;;;;;8.27;2.10;;;;;;;;;;5114167;28;20229;-76
2023/03/30 00:47:35;;;;;;;10.70;2.43;;;;;;;;;;5114092;28;20332;-76
2023/03/30 00:50:03;;;;;;;9.13;1.97;;;;;;;;;;5114170;28;20198;-76
2023/03/30 00:52:31;;;;;;;9.60;2.70;;;;;;;;;;5113288;28;20225;-76
2023/03/30 00:55:00;;;;;;;13.20;2.33;;;;;;;;;;5113735;28;20217;-74
2023/03/30 00:57:27;;;;;;;14.13;2.37;;;;;;;;;;5113579;28;20255;-76
2023/03/30 00:59:56;;;;;;;6.13;2.00;;;;;;;;;;5113283;28;20280;-76
2023/03/30 01:02:23;;;;;;;10.47;2.33;;;;;;;;;;5113698;28;20217;-76
2023/03/30 01:04:54;;;;;;;9.93;2.17;;;;;;;;;;5093454;28;20290;-75
2023/03/30 01:07:23;;;;;;;11.23;3.00;;;;;;;;;;5092377;28;20294;-76
2023/03/30 01:09:51;;;;;;;9.50;2.30;;;;;;;;;;5092964;28;20683;-75
2023/03/30 01:12:20;;;;;;;13.40;2.30;;;;;;;;;;5096978;28;20198;-76
2023/03/30 01:14:48;;;;;;;14.20;2.60;;;;;;;;;;5093349;28;20203;-76
2023/03/30 01:17:20;;;;;;;7.70;1.97;;;;;;;;;;5093230;28;20218;-76
2023/03/30 01:20:02;;;;;;;8.53;2.20;;;;;;;;;;5092826;28;20754;-76
2023/03/30 01:22:37;;;;;;;15.27;3.00;;;;;;;;;;5092977;28;20583;-76
2023/03/30 01:25:21;;;;;;;11.00;2.13;;;;;;;;;;5093266;28;20233;-76
2023/03/30 01:28:00;;;;;;;8.23;2.10;;;;;;;;;;5092933;28;20272;-76
2023/03/30 01:30:33;;;;;;;10.50;2.40;;;;;;;;;;5093322;28;20222;-76
2023/03/30 01:33:08;;;;;;;10.43;2.03;;;;;;;;;;5092723;28;20275;-76
2023/03/30 01:35:46;;;;;;;8.67;1.90;;;;;;;;;;5092769;28;20198;-75
2023/03/30 01:38:34;;;;;;;7.33;1.90;;;;;;;;;;5092194;28;20305;-75
2023/03/30 01:41:08;;;;;;;11.67;2.50;;;;;;;;;;5010083;28;20339;-75
2023/03/30 01:43:39;;;;;;;8.67;2.10;;;;;;;;;;5010616;28;20319;-76
2023/03/30 01:46:09;;;;;;;11.97;2.40;;;;;;;;;;5010335;28;20211;-76
2023/03/30 01:48:44;;;;;;;11.27;2.30;;;;;;;;;;5010025;28;20256;-76
2023/03/30 01:51:13;;;;;;;12.63;2.37;;;;;;;;;;5009545;28;20232;-76
2023/03/30 01:53:43;;;;;;;11.50;2.23;;;;;;;;;;5010038;28;20228;-75
2023/03/30 01:56:14;;;;;;;13.07;2.57;;;;;;;;;;5009940;28;20748;-75
2023/03/30 01:58:44;;;;;;;11.67;2.57;;;;;;;;;;5010121;28;20205;-75
2023/03/30 02:01:13;;;;;;;11.03;2.10;;;;;;;;;;5010232;28;20292;-76
2023/03/30 02:03:42;;;;;;;13.23;3.00;;;;;;;;;;5009958;28;20275;-76
2023/03/30 02:06:10;;;;;;;12.30;2.63;;;;;;;;;;5008688;28;20292;-76
2023/03/30 02:08:38;;;;;;;8.23;2.47;;;;;;;;;;5009997;28;20225;-76
2023/03/30 02:11:06;;;;;;;12.33;2.27;;;;;;;;;;5009873;28;20681;-77
2023/03/30 02:13:36;;;;;;;10.23;2.50;;;;;;;;;;5022070;28;20228;-76
2023/03/30 02:16:06;;;;;;;13.47;2.70;;;;;;;;;;5029611;28;20207;-76
2023/03/30 02:18:33;;;;;;;17.53;2.77;;;;;;;;;;5088946;28;20221;-75
2023/03/30 02:21:02;;;;;;;12.70;2.50;;;;;;;;;;5112184;28;20280;-77
2023/03/30 02:23:33;;;;;;;13.23;2.70;;;;;;;;;;5111933;28;20234;-76
2023/03/30 02:26:01;;;;;;;10.00;2.57;;;;;;;;;;5112354;28;20296;-75
2023/03/30 02:28:28;;;;;;;11.87;2.80;;;;;;;;;;5112546;28;20201;-76
2023/03/30 02:30:57;;;;;;;15.00;3.10;;;;;;;;;;5112066;28;20217;-77
2023/03/30 02:33:25;;;;;;;13.87;2.80;;;;;;;;;;5112096;28;20231;-76
2023/03/30 02:36:08;;;;;;;19.47;3.73;;;;;;;;;;5111556;28;20726;-77
2023/03/30 02:38:50;;;;;;;14.70;2.83;;;;;;;;;;5109179;28;20197;-76
2023/03/30 02:41:23;;;;;;;18.30;3.40;;;;;;;;;;5095448;28;20197;-77
2023/03/30 02:43:56;;;;;;;17.57;2.90;;;;;;;;;;5111927;28;20313;-76
2023/03/30 02:46:34;;;;;;;21.57;3.53;;;;;;;;;;5111900;28;20218;-76
2023/03/30 02:49:07;;;;;;;17.63;3.20;;;;;;;;;;5111696;28;20357;-75
2023/03/30 02:51:39;;;;;;;16.60;3.13;;;;;;;;;;5112403;28;20633;-76
2023/03/30 02:54:14;;;;;;;14.10;3.10;;;;;;;;;;5111879;28;20301;-76
2023/03/30 02:56:45;;;;;;;21.27;3.67;;;;;;;;;;5111807;28;20197;-75
2023/03/30 02:59:15;;;;;;;17.30;3.30;;;;;;;;;;5111631;28;20744;-76
2023/03/30 03:01:46;;;;;;;21.23;3.03;;;;;;;;;;5112031;28;20562;-76
2023/03/30 03:04:15;;;;;;;16.93;3.20;;;;;;;;;;5111258;28;20264;-77
2023/03/30 03:06:43;;;;;;;15.07;2.57;;;;;;;;;;5111675;28;20197;-76
2023/03/30 03:09:10;;;;;;;17.07;3.53;;;;;;;;;;5111555;28;20658;-76
2023/03/30 03:11:37;;;;;;;17.30;3.33;;;;;;;;;;5111928;28;20557;-75
2023/03/30 03:14:06;;;;;;;19.80;3.73;;;;;;;;;;5094331;28;20238;-75
2023/03/30 03:16:34;;;;;;;21.10;4.07;;;;;;;;;;5092709;28;20198;-75
2023/03/30 03:19:03;;;;;;;16.60;3.23;;;;;;;;;;5095166;28;20206;-75
2023/03/30 03:21:30;;;;;;;23.13;3.87;;;;;;;;;;5095565;28;20233;-75
2023/03/30 03:23:58;;;;;;;16.23;3.50;;;;;;;;;;5095215;28;20321;-75
2023/03/30 03:26:25;;;;;;;22.47;4.00;;;;;;;;;;5095276;28;20285;-76
2023/03/30 03:28:53;;;;;;;20.87;3.50;;;;;;;;;;5095020;28;20543;-77
2023/03/30 03:31:20;;;;;;;15.50;3.40;;;;;;;;;;5095250;28;20230;-76
2023/03/30 03:33:49;;;;;;;17.87;3.60;;;;;;;;;;5094977;28;20289;-76
2023/03/30 03:36:18;;;;;;;22.97;3.93;;;;;;;;;;5095410;28;20195;-76
2023/03/30 03:38:45;;;;;;;27.70;4.23;;;;;;;;;;5095474;28;20195;-75
2023/03/30 03:41:14;;;;;;;21.57;3.47;;;;;;;;;;5094824;28;20230;-75
2023/03/30 03:43:41;;;;;;;26.07;3.77;;;;;;;;;;5094899;28;20769;-75
2023/03/30 03:46:08;;;;;;;23.10;3.37;;;;;;;;;;5094729;28;20746;-76
2023/03/30 03:48:35;;;;;;;24.83;3.97;;;;;;;;;;5094323;28;20698;-75
2023/03/30 03:51:02;;;;;;;17.43;3.47;;;;;;;;;;5095188;28;20214;-75
2023/03/30 03:53:31;;;;;;;24.20;3.60;;;;;;;;;;5094757;28;20225;-75
2023/03/30 03:55:58;;;;;;;21.17;3.77;;;;;;;;;;5094335;28;20620;-76
2023/03/30 03:58:26;;;;;;;24.60;3.90;;;;;;;;;;5094604;28;20225;-75
2023/03/30 04:00:58;;;;;;;21.97;4.10;;;;;;;;;;5094383;28;20289;-76
2023/03/30 04:03:25;;;;;;;19.23;3.63;;;;;;;;;;5094226;28;20260;-76
2023/03/30 04:05:53;;;;;;;19.43;3.90;;;;;;;;;;5094532;28;20225;-76
2023/03/30 04:08:20;;;;;;;22.37;3.93;;;;;;;;;;5096318;28;20271;-76
2023/03/30 04:10:48;;;;;;;24.00;3.80;;;;;;;;;;5115118;28;20234;-75
2023/03/30 04:13:15;;;;;;;20.37;3.33;;;;;;;;;;5114633;28;20746;-75
2023/03/30 04:15:43;;;;;;;21.87;3.87;;;;;;;;;;5114278;28;20198;-76
2023/03/30 04:18:10;;;;;;;24.57;4.23;;;;;;;;;;5114692;28;20193;-76
2023/03/30 04:20:37;;;;;;;22.37;3.90;;;;;;;;;;5114191;28;20718;-76
2023/03/30 04:23:04;;;;;;;27.80;4.30;;;;;;;;;;5114592;28;20246;-76
2023/03/30 04:25:31;;;;;;;23.13;4.10;;;;;;;;;;5114871;28;20285;-76
2023/03/30 04:28:00;;;;;;;20.30;3.67;;;;;;;;;;5113541;28;20225;-75
2023/03/30 04:30:29;;;;;;;26.67;4.37;;;;;;;;;;5113945;28;20765;-75
2023/03/30 04:33:03;;;;;;;23.30;3.90;;;;;;;;;;5114137;28;20201;-76
2023/03/30 04:35:31;;;;;;;22.00;3.60;;;;;;;;;;5114154;28;20194;-76
2023/03/30 04:37:59;;;;;;;19.80;3.50;;;;;;;;;;5114208;28;20250;-76
2023/03/30 04:40:26;;;;;;;20.00;3.63;;;;;;;;;;5114217;28;20200;-77
2023/03/30 04:42:53;;;;;;;22.53;3.70;;;;;;;;;;5114091;28;20226;-75
2023/03/30 04:45:22;;;;;;;24.77;4.10;;;;;;;;;;5113842;28;20229;-77
2023/03/30 04:47:49;;;;;;;23.47;4.30;;;;;;;;;;5114097;28;20280;-75
2023/03/30 04:50:16;;;;;;;26.03;4.30;;;;;;;;;;5114343;28;20285;-76
2023/03/30 04:52:43;;;;;;;22.03;3.50;;;;;;;;;;5114139;28;20798;-76
2023/03/30 04:55:11;;;;;;;20.93;3.67;;;;;;;;;;5113426;28;20263;-76
2023/03/30 04:57:38;;;;;;;26.53;4.07;;;;;;;;;;5114087;28;20239;-75
2023/03/30 05:00:07;;;;;;;28.60;4.13;;;;;;;;;;5113514;28;20286;-75
2023/03/30 05:02:36;;;;;;;28.60;4.73;;;;;;;;;;5113588;28;20213;-76
2023/03/30 05:05:03;;;;;;;25.87;4.50;;;;;;;;;;5113997;28;20320;-75
2023/03/30 05:07:30;;;;;;;25.20;4.50;;;;;;;;;;5110651;28;20190;-76
2023/03/30 05:09:58;;;;;;;23.23;4.87;;;;;;;;;;5112814;28;20308;-75
2023/03/30 05:12:25;;;;;;;25.00;4.37;;;;;;;;;;5113403;28;20313;-75
2023/03/30 05:14:52;;;;;;;23.37;3.70;;;;;;;;;;5113293;28;20216;-74
2023/03/30 05:17:19;;;;;;;24.73;3.90;;;;;;;;;;5113428;28;20234;-75
2023/03/30 05:19:48;;;;;;;29.43;4.77;;;;;;;;;;5113098;28;20239;-76
2023/03/30 05:22:15;;;;;;;24.10;4.70;;;;;;;;;;5113382;28;20197;-75
2023/03/30 05:24:43;;;;;;;24.30;4.17;;;;;;;;;;5112493;28;20221;-77
2023/03/30 05:27:10;;;;;;;26.50;4.40;;;;;;;;;;5112733;28;20233;-76
2023/03/30 05:29:37;;;;;;;26.73;4.13;;;;;;;;;;5112656;28;20674;-76
2023/03/30 05:32:04;;;;;;;27.93;4.53;;;;;;;;;;5113137;28;20329;-77
2023/03/30 05:34:31;;;;;;;22.97;4.43;;;;;;;;;;5112954;28;20274;-76
2023/03/30 05:37:00;;;;;;;28.10;4.73;;;;;;;;;;5113106;28;20194;-77
2023/03/30 05:39:30;;;;;;;28.43;4.60;;;;;;;;;;5112105;28;20263;-77
2023/03/30 05:41:57;;;;;;;34.17;5.07;;;;;;;;;;5112221;27;20700;-76
2023/03/30 05:44:24;;;;;;;27.73;5.03;;;;;;;;;;5112323;28;20693;-76
2023/03/30 05:46:51;;;;;;;32.80;5.07;;;;;;;;;;5111685;28;20314;-78
2023/03/30 05:49:19;;;;;;;26.93;4.70;;;;;;;;;;5108732;28;20284;-75
2023/03/30 05:51:46;;;;;;;31.73;5.40;;;;;;;;;;5112707;28;20190;-76
2023/03/30 05:54:15;;;;;;;29.87;4.50;;;;;;;;;;5112809;28;20296;-76
2023/03/30 05:56:42;;;;;;;28.73;5.00;;;;;;;;;;5112562;28;20285;-78
2023/03/30 05:59:11;;;;;;;26.17;4.27;;;;;;;;;;5112390;28;20284;-75
2023/03/30 06:01:39;;;;;;;34.07;4.60;;;;;;;;;;5112904;28;20255;-75
2023/03/30 06:04:06;;;;;;;27.40;4.50;;;;;;;;;;5112782;28;20251;-75
2023/03/30 06:06:34;;;;;;;23.33;4.90;;;;;;;;;;5099172;28;20663;-77
2023/03/30 06:09:01;;;;;;;29.27;4.77;;;;;;;;;;5091856;28;20301;-78
2023/03/30 06:11:30;;;;;;;35.27;5.60;;;;;;;;;;5091576;28;20198;-79
2023/03/30 06:13:57;;;;;;;30.83;4.97;;;;;;;;;;5107877;28;20201;-78
2023/03/30 06:16:25;;;;;;;26.10;4.73;;;;;;;;;;5112653;28;20218;-78
2023/03/30 06:18:52;;;;;;;29.33;5.53;;;;;;;;;;5112748;28;20682;-78
2023/03/30 06:21:19;;;;;;;30.97;5.87;;;;;;;;;;5112317;28;20213;-77
2023/03/30 06:23:47;;;;;;;43.73;6.20;;;;;;;;;;5112350;28;20321;-78
2023/03/30 06:26:15;;;;;;;36.13;6.07;;;;;;;;;;5112228;28;20208;-78
2023/03/30 06:28:43;;;;;;;30.87;4.83;;;;;;;;;;5112061;28;20674;-79
2023/03/30 06:31:11;;;;;;;27.10;5.47;;;;;;;;;;5112542;28;20316;-77
2023/03/30 06:33:38;;;;;;;25.57;4.43;;;;;;;;;;5112389;28;20240;-76
2023/03/30 06:36:10;;;;;;;32.23;4.97;;;;;;;;;;5112015;28;20233;-77
2023/03/30 06:38:38;;;;;;;33.30;5.47;;;;;;;;;;5112125;28;20198;-77
2023/03/30 06:41:10;;;;;;;32.50;4.97;;;;;;;;;;5112161;28;20277;-77
2023/03/30 06:43:38;;;;;;;30.73;5.27;;;;;;;;;;5112049;28;20568;-75
2023/03/30 06:46:07;;;;;;;32.17;5.43;;;;;;;;;;5112357;28;20277;-76
2023/03/30 06:48:34;;;;;;;25.37;4.40;;;;;;;;;;5111835;28;20324;-77
2023/03/30 06:51:02;;;;;;;27.00;5.70;;;;;;;;;;5111545;28;20193;-77
2023/03/30 06:53:29;;;;;;;30.70;5.00;;;;;;;;;;5112158;28;20198;-77
2023/03/30 06:55:58;;;;;;;35.97;5.53;;;;;;;;;;5111429;28;20634;-78
2023/03/30 06:58:26;;;;;;;20.53;4.67;;;;;;;;;;5111779;28;20649;-78
2023/03/30 07:00:54;;;;;;;27.20;5.20;;;;;;;;;;5111855;28;20201;-78
2023/03/30 07:03:23;;;;;;;36.20;5.23;;;;;;;;;;5112217;28;20231;-79
2023/03/30 07:05:51;;;;;;;23.13;5.00;;;;;;;;;;5111418;28;20738;-77
2023/03/30 07:08:18;;;;;;;29.13;4.67;;;;;;;;;;5111663;28;20198;-77
2023/03/30 07:10:46;;;;;;;23.37;5.40;;;;;;;;;;5111471;28;20189;-78
2023/03/30 07:13:15;;;;;;;23.50;4.80;;;;;;;;;;5112026;28;20289;-77
2023/03/30 07:15:42;;;;;;;29.63;5.43;;;;;;;;;;5111462;28;20705;-78
2023/03/30 07:18:09;;;;;;;27.97;5.03;;;;;;;;;;5111778;28;20650;-77
2023/03/30 07:20:38;;;;;;;28.77;4.77;;;;;;;;;;5111475;28;20273;-76
2023/03/30 07:23:06;;;;;;;27.20;4.97;;;;;;;;;;5112238;28;20216;-77
2023/03/30 07:25:33;;;;;;;25.50;4.93;;;;;;;;;;5111048;28;20713;-77
2023/03/30 07:28:01;;;;;;;27.03;5.33;;;;;;;;;;5111376;28;20200;-77
2023/03/30 07:30:28;;;;;;;29.53;5.30;;;;;;;;;;5111509;28;20198;-77
2023/03/30 07:32:55;;;;;;;26.50;5.03;;;;;;;;;;5111591;28;20229;-78
2023/03/30 07:35:22;;;;;;;28.23;5.17;;;;;;;;;;5111125;28;20726;-77
2023/03/30 07:37:51;;;;;;;26.80;5.03;;;;;;;;;;5111425;28;20562;-78
2023/03/30 07:40:18;;;;;;;31.93;5.17;;;;;;;;;;5111183;28;20240;-77
2023/03/30 07:42:46;;;;;;;28.63;6.53;;;;;;;;;;5111477;28;20251;-77
2023/03/30 07:45:14;;;;;;;31.13;5.20;;;;;;;;;;5111080;28;20225;-77
2023/03/30 07:47:41;;;;;;;28.20;5.30;;;;;;;;;;5111425;28;20325;-77
2023/03/30 07:50:09;;;;;;;27.33;5.03;;;;;;;;;;5111210;28;20202;-76
2023/03/30 07:52:36;;;;;;;32.70;5.17;;;;;;;;;;5111710;28;20670;-77
2023/03/30 07:55:06;;;;;;;28.10;5.13;;;;;;;;;;5111151;28;20202;-77
2023/03/30 07:57:33;;;;;;;29.80;5.23;;;;;;;;;;5111268;28;20194;-76
2023/03/30 08:00:00;;;;;;;25.73;6.10;;;;;;;;;;5111769;28;20190;-76
2023/03/30 08:02:28;;;;;;;28.93;5.47;;;;;;;;;;5112728;28;20289;-77
2023/03/30 08:04:55;;;;;;;27.67;5.53;;;;;;;;;;5115078;28;20257;-77
2023/03/30 08:07:22;;;;;;;28.87;5.67;;;;;;;;;;5114991;28;20697;-76
2023/03/30 08:09:50;;;;;;;24.30;5.07;;;;;;;;;;5114832;28;20640;-78
2023/03/30 08:12:18;;;;;;;27.10;5.70;;;;;;;;;;5115011;28;20212;-78
2023/03/30 08:14:48;;;;;;;27.43;5.57;;;;;;;;;;5114874;28;20658;-77
2023/03/30 08:17:15;;;;;;;31.97;4.87;;;;;;;;;;5115313;28;20204;-77
2023/03/30 08:19:42;;;;;;;24.40;5.53;;;;;;;;;;5114756;28;20198;-77
2023/03/30 08:22:09;;;;;;;26.50;4.80;;;;;;;;;;5114412;28;20296;-76
2023/03/30 08:24:37;;;;;;;25.70;5.13;;;;;;;;;;5114468;28;20720;-78
2023/03/30 08:27:04;;;;;;;31.10;5.50;;;;;;;;;;5097308;28;20217;-78
2023/03/30 08:29:32;;;;;;;23.13;5.23;;;;;;;;;;5114804;28;20218;-79
2023/03/30 08:32:00;;;;;;;25.07;4.87;;;;;;;;;;5114355;28;20229;-78
2023/03/30 08:34:27;;;;;;;21.57;4.63;;;;;;;;;;5114249;28;20233;-78
2023/03/30 08:36:56;;;;;;;22.95;4.50;;;;;;;;;;5113877;28;20723;-78
2023/03/30 08:39:24;;;;;;;22.23;4.60;;;;;;;;;;5114335;28;20251;-78
2023/03/30 08:42:00;;;;;;;25.50;4.63;;;;;;;;;;5114581;28;20196;-78
2023/03/30 08:44:37;;;;;;;23.35;4.13;;;;;;;;;;5114256;28;20308;-78
2023/03/30 08:47:05;;;;;;;20.53;4.90;;;;;;;;;;5114035;28;20643;-78
2023/03/30 08:49:36;;;;;;;27.30;4.93;;;;;;;;;;5114117;28;20654;-78
2023/03/30 08:52:04;;;;;;;22.20;4.87;;;;;;;;;;5113815;28;20292;-78
2023/03/30 08:54:32;;;;;;;23.60;5.07;;;;;;;;;;5114149;28;20232;-78
2023/03/30 08:57:07;;;;;;;20.97;4.50;;;;;;;;;;5114244;28;20233;-78
2023/03/30 08:59:39;;;;;;;20.53;4.27;;;;;;;;;;5114318;28;20204;-78
2023/03/30 09:02:14;;;;;;;24.97;5.30;;;;;;;;;;5113731;28;20670;-78
2023/03/30 09:04:46;;;;;;;20.45;4.50;;;;;;;;;;5113948;28;20315;-78
2023/03/30 09:07:16;;;;;;;18.30;4.28;;;;;;;;;;5113714;28;20573;-78
2023/03/30 09:09:45;;;;;;;18.65;4.25;;;;;;;;;;5114337;28;20221;-79
2023/03/30 09:12:17;;;;;;;12.85;3.47;;;;;;;;;;5113807;28;20218;-78
2023/03/30 09:14:47;;;;;;;17.38;3.70;;;;;;;;;;5112996;28;20237;-79
2023/03/30 09:17:15;;;;;;;16.40;3.78;;;;;;;;;;5113459;28;20225;-79
2023/03/30 09:19:47;;;;;;;15.85;3.78;;;;;;;;;;5113982;28;20585;-78
2023/03/30 09:22:15;;;;;;;18.63;3.80;;;;;;;;;;5113749;28;20232;-79
2023/03/30 09:24:42;;;;;;;18.08;4.03;;;;;;;;;;5113335;28;20735;-79
2023/03/30 09:27:13;;;;;;;17.65;4.03;;;;;;;;;;5113414;28;20201;-78
2023/03/30 09:29:43;;;;;;;19.35;4.35;;;;;;;;;;5113549;28;20761;-78
2023/03/30 09:32:14;;;;;;;22.77;5.28;;;;;;;;;;5113661;28;20259;-78
2023/03/30 09:34:46;;;;;;;19.63;3.92;;;;;;;;;;5113235;28;20666;-78
2023/03/30 09:37:17;;;;;;;22.60;4.07;;;;;;;;;;5113185;28;20237;-78
2023/03/30 09:39:45;;;;;;;20.77;4.35;;;;;;;;;;5113566;28;20656;-79
2023/03/30 09:42:15;;;;;;;22.17;4.45;;;;;;;;;;5113353;28;20206;-79
2023/03/30 09:44:45;;;;;;;21.58;4.15;;;;;;;;;;5113097;28;20205;-79
2023/03/30 09:47:20;;;;;;;19.25;4.22;;;;;;;;;;5113084;28;20260;-78
2023/03/30 09:49:47;;;;;;;20.35;4.88;;;;;;;;;;5113011;28;20193;-79
2023/03/30 09:52:20;;;;;;;20.73;4.68;;;;;;;;;;5113329;28;20695;-79
2023/03/30 09:54:47;;;;;;;20.92;4.18;;;;;;;;;;5112564;28;20274;-78
2023/03/30 09:57:25;;;;;;;16.65;4.72;;;;;;;;;;5113302;28;20214;-79
2023/03/30 09:59:54;;;;;;;22.48;4.45;;;;;;;;;;5112953;28;20757;-78
2023/03/30 10:02:23;;;;;;;19.23;3.97;;;;;;;;;;5112913;28;20198;-79
2023/03/30 10:05:02;;;;;;;19.23;4.47;;;;;;;;;;5112221;28;20224;-80
2023/03/30 10:07:31;;;;;;;18.77;4.40;;;;;;;;;;5113160;28;20320;-79
2023/03/30 10:09:59;;;;;;;17.15;3.85;;;;;;;;;;5112752;28;20228;-79
2023/03/30 10:12:28;;;;;;;19.15;4.78;;;;;;;;;;5112783;28;20190;-80
2023/03/30 10:14:55;;;;;;;24.25;5.55;;;;;;;;;;5112530;28;20224;-79
2023/03/30 10:17:25;;;;;;;20.52;3.97;;;;;;;;;;5112652;28;20193;-79
2023/03/30 10:19:53;;;;;;;21.35;3.92;;;;;;;;;;5112644;28;20224;-79
2023/03/30 10:22:22;;;;;;;20.58;4.53;;;;;;;;;;5112332;28;20198;-79
2023/03/30 10:24:51;;;;;;;25.38;4.20;;;;;;;;;;5112393;28;20647;-79
2023/03/30 10:27:19;;;;;;;23.88;4.50;;;;;;;;;;5111613;28;20206;-79
2023/03/30 10:29:49;;;;;;;24.17;4.18;;;;;;;;;;5112464;28;20193;-79
2023/03/30 10:32:18;;;;;;;23.83;4.65;;;;;;;;;;5112832;28;20202;-79
2023/03/30 10:34:48;;;;;;;23.67;4.45;;;;;;;;;;5112084;28;20224;-79
2023/03/30 10:37:17;;;;;;;23.03;4.03;;;;;;;;;;5112143;28;20214;-79
2023/03/30 10:39:47;;;;;;;26.13;4.70;;;;;;;;;;5112636;28;20640;-78
2023/03/30 10:42:16;;;;;;;19.50;4.13;;;;;;;;;;5111935;28;20730;-79
2023/03/30 10:44:45;;;;;;;23.80;4.47;;;;;;;;;;5111986;28;20251;-79
2023/03/30 10:47:31;;;;;;;24.47;4.93;;;;;;;;;;5111709;28;20229;-79
2023/03/30 10:50:04;;;;;;;23.47;4.20;;;;;;;;;;5111890;28;20284;-78
2023/03/30 10:52:34;;;;;;;22.27;4.18;;;;;;;;;;5112425;28;20576;-78
2023/03/30 10:55:04;;;;;;;17.43;3.90;;;;;;;;;;5112126;28;20242;-77
2023/03/30 10:57:35;;;;;;;18.63;3.85;;;;;;;;;;5111685;28;20678;-80
2023/03/30 11:00:10;;;;;;;18.70;3.80;;;;;;;;;;5112066;28;20190;-79
2023/03/30 11:02:45;;;;;;;19.65;3.42;;;;;;;;;;5111410;28;20288;-79
2023/03/30 11:05:16;;;;;;;17.50;4.07;;;;;;;;;;5111807;28;20228;-78
2023/03/30 11:07:45;;;;;;;17.52;3.25;;;;;;;;;;5111971;28;20220;-80
2023/03/30 11:10:16;;;;;;;21.48;3.80;;;;;;;;;;5111841;28;20285;-79
2023/03/30 11:12:44;;;;;;;18.77;3.53;;;;;;;;;;5111846;28;20238;-78
2023/03/30 11:15:15;;;;;;;13.52;3.53;;;;;;;;;;5111614;28;20193;-79
2023/03/30 11:17:47;;;;;;;12.68;3.22;;;;;;;;;;5111654;28;20225;-78
2023/03/30 11:20:26;;;;;;;13.55;3.00;;;;;;;;;;5112128;28;20198;-79
2023/03/30 11:22:56;;;;;;;12.85;2.47;;;;;;;;;;5111915;28;20197;-78
2023/03/30 11:25:25;;;;;;;11.40;3.08;;;;;;;;;;5111612;28;20217;-79
2023/03/30 11:27:55;;;;;;;12.55;3.13;;;;;;;;;;5111429;28;20285;-79
2023/03/30 11:30:24;;;;;;;11.43;2.78;;;;;;;;;;5112023;28;20193;-80
2023/03/30 11:32:54;;;;;;;14.70;3.13;;;;;;;;;;5111506;28;20190;-78
2023/03/30 11:35:27;;;;;;;10.63;3.13;;;;;;;;;;5111706;28;20240;-80
2023/03/30 11:37:59;;;;;;;16.42;3.58;;;;;;;;;;5113878;28;20194;-79
2023/03/30 11:40:27;;;;;;;16.10;3.28;;;;;;;;;;5115751;28;20201;-79
2023/03/30 11:42:55;;;;;;;16.30;3.47;;;;;;;;;;5115622;28;20204;-80
2023/03/30 11:45:42;;;;;;;17.38;3.58;;;;;;;;;;5115254;28;20217;-79
2023/03/30 11:48:20;;;;;;;16.52;3.33;;;;;;;;;;5115277;28;20230;-79
2023/03/30 11:50:58;;;;;;;18.00;3.78;;;;;;;;;;5115354;28;20201;-80
2023/03/30 11:53:31;;;;;;;16.60;3.60;;;;;;;;;;5115424;28;20281;-79
2023/03/30 11:56:04;;;;;;;18.15;3.55;;;;;;;;;;5114874;28;20226;-79
2023/03/30 11:58:34;;;;;;;15.57;3.22;;;;;;;;;;5115540;28;20194;-78
2023/03/30 12:01:08;;;;;;;15.57;3.08;;;;;;;;;;5115209;28;20626;-79
2023/03/30 12:03:37;;;;;;;15.75;3.58;;;;;;;;;;5115593;28;20193;-79
2023/03/30 12:06:25;;;;;;;13.50;3.08;;;;;;;;;;5114745;28;20275;-79
2023/03/30 12:08:58;;;;;;;12.10;2.90;;;;;;;;;;5114956;28;20194;-79
2023/03/30 12:11:31;;;;;;;15.93;3.75;;;;;;;;;;5114956;28;20292;-80
2023/03/30 12:13:59;;;;;;;13.23;3.13;;;;;;;;;;5115125;28;20232;-80
2023/03/30 12:16:30;;;;;;;12.70;2.90;;;;;;;;;;5114517;28;20201;-80
2023/03/30 12:19:04;;;;;;;21.27;3.13;;;;;;;;;;5114887;28;20550;-80
2023/03/30 12:21:34;;;;;;;13.63;3.30;;;;;;;;;;5114817;28;20197;-80
2023/03/30 12:24:04;;;;;;;12.70;2.97;;;;;;;;;;5114528;28;20288;-78
2023/03/30 12:26:33;;;;;;;16.92;4.00;;;;;;;;;;5114771;28;20312;-80
2023/03/30 12:29:11;;;;;;;11.77;3.28;;;;;;;;;;5114956;28;20284;-80
2023/03/30 12:31:57;;;;;;;13.25;3.40;;;;;;;;;;5114707;28;20209;-79
2023/03/30 12:34:27;;;;;;;11.60;3.70;;;;;;;;;;5114656;28;20204;-80
2023/03/30 12:37:01;;;;;;;12.38;2.95;;;;;;;;;;5114478;28;20244;-79
2023/03/30 12:39:29;;;;;;;11.38;2.80;;;;;;;;;;5114688;28;20681;-79
2023/03/30 12:42:03;;;;;;;17.63;3.53;;;;;;;;;;5114201;28;20658;-79
2023/03/30 12:44:42;;;;;;;9.35;2.22;;;;;;;;;;5114025;28;20197;-80
2023/03/30 12:47:18;;;;;;;11.63;2.60;;;;;;;;;;5114085;28;20241;-80
2023/03/30 12:49:52;;;;;;;13.73;2.80;;;;;;;;;;5113373;28;20190;-79
2023/03/30 12:52:27;;;;;;;12.50;2.88;;;;;;;;;;5114369;28;20224;-80
2023/03/30 12:55:09;;;;;;;15.88;3.20;;;;;;;;;;5114215;28;20194;-79
2023/03/30 12:57:45;;;;;;;13.10;3.47;;;;;;;;;;5114275;28;20239;-78
2023/03/30 13:00:24;;;;;;;14.48;3.28;;;;;;;;;;5114192;28;20228;-79
2023/03/30 13:03:03;;;;;;;14.55;3.30;;;;;;;;;;5113987;28;20225;-79
2023/03/30 13:05:32;;;;;;;15.98;3.55;;;;;;;;;;5113936;28;20281;-80
2023/03/30 13:08:04;;;;;;;16.38;3.25;;;;;;;;;;5114265;28;20200;-80
2023/03/30 13:10:36;;;;;;;19.83;3.28;;;;;;;;;;5113710;28;20285;-79
2023/03/30 13:13:04;;;;;;;17.50;3.72;;;;;;;;;;5113790;28;20283;-80
2023/03/30 13:15:41;;;;;;;12.40;3.28;;;;;;;;;;5113314;28;20194;-79
2023/03/30 13:18:23;;;;;;;22.48;4.43;;;;;;;;;;5114087;28;20197;-79
2023/03/30 13:21:08;;;;;;;11.60;2.92;;;;;;;;;;5113751;28;20653;-80
2023/03/30 13:23:38;;;;;;;19.23;2.97;;;;;;;;;;5113678;28;20229;-79
2023/03/30 13:26:07;;;;;;;16.25;3.97;;;;;;;;;;5113780;28;20320;-80
2023/03/30 13:28:47;;;;;;;18.88;3.65;;;;;;;;;;5113530;28;20198;-79
2023/03/30 13:31:21;;;;;;;14.77;3.40;;;;;;;;;;5113665;28;20189;-80
2023/03/30 13:33:50;;;;;;;15.32;3.20;;;;;;;;;;5113366;28;20280;-80
2023/03/30 13:36:19;;;;;;;15.70;3.28;;;;;;;;;;5113906;28;20240;-81
2023/03/30 13:38:55;;;;;;;19.83;3.85;;;;;;;;;;5113077;28;20202;-79
2023/03/30 13:41:28;;;;;;;15.30;3.00;;;;;;;;;;5113111;28;20225;-79
2023/03/30 13:44:02;;;;;;;14.15;2.83;;;;;;;;;;5113007;28;20758;-80
2023/03/30 13:46:33;;;;;;;15.10;3.13;;;;;;;;;;5112991;28;20320;-79
2023/03/30 13:49:07;;;;;;;18.90;3.38;;;;;;;;;;5113388;28;20288;-78
2023/03/30 13:51:37;;;;;;;17.48;3.38;;;;;;;;;;5113287;28;20987;-80
2023/03/30 13:54:08;;;;;;;15.98;3.42;;;;;;;;;;5113041;28;20213;-79
2023/03/30 13:56:37;;;;;;;15.15;3.58;;;;;;;;;;5112338;28;20250;-80
2023/03/30 13:59:06;;;;;;;18.58;3.45;;;;;;;;;;5113102;28;20293;-80
2023/03/30 14:01:33;;;;;;;16.85;2.80;;;;;;;;;;5112956;28;20255;-79
2023/03/30 14:04:03;;;;;;;18.23;3.10;;;;;;;;;;5112628;28;20849;-79
2023/03/30 14:06:33;;;;;;;16.92;3.70;;;;;;;;;;5112381;28;20237;-80
2023/03/30 14:09:09;;;;;;;14.02;3.38;;;;;;;;;;5112719;28;20193;-79
2023/03/30 14:11:39;;;;;;;18.75;3.95;;;;;;;;;;5112318;28;20288;-80
2023/03/30 14:14:07;;;;;;;13.82;3.45;;;;;;;;;;5112640;28;20222;-81
2023/03/30 14:16:35;;;;;;;16.77;3.60;;;;;;;;;;5112931;28;20670;-79
2023/03/30 14:19:09;;;;;;;18.42;3.47;;;;;;;;;;5112553;28;20233;-79
2023/03/30 14:21:37;;;;;;;20.33;3.88;;;;;;;;;;5112249;28;20233;-79
2023/03/30 14:24:05;;;;;;;14.55;3.00;;;;;;;;;;5112517;28;20261;-79
2023/03/30 14:26:32;;;;;;;13.43;3.00;;;;;;;;;;5111895;28;20245;-79
2023/03/30 14:29:06;;;;;;;20.58;3.28;;;;;;;;;;5112745;28;20289;-77
2023/03/30 14:31:38;;;;;;;17.35;3.05;;;;;;;;;;5112367;28;20194;-80
2023/03/30 14:34:20;;;;;;;16.42;3.60;;;;;;;;;;5111832;28;20229;-77
2023/03/30 14:36:48;;;;;;;19.92;3.30;;;;;;;;;;5112311;28;20232;-78
2023/03/30 14:39:16;;;;;;;19.52;3.90;;;;;;;;;;5112227;27;20738;-79
2023/03/30 14:41:43;;;;;;;18.98;3.85;;;;;;;;;;5119689;27;20276;-78
2023/03/30 14:44:13;;;;;;;18.43;3.40;;;;;;;;;;5111853;27;20678;-78
2023/03/30 14:46:42;;;;;;;19.10;3.70;;;;;;;;;;5109866;28;20289;-81